sensor_id;sensor_type;location;lat;lon;timestamp;pressure;altitude;pressure_sealevel;temperature
72405;BMP280;60395;52.020;113.548;2023-06-22T00:01:24;92585.34;;;38.37
72405;BMP280;60395;52.020;113.548;2023-06-22T00:04:27;92577.25;;;39.31
72405;BMP280;60395;52.020;113.548;2023-06-22T00:07:31;92578.22;;;39.92
72405;BMP280;60395;52.020;113.548;2023-06-22T00:10:34;92577.16;;;40.09
72405;BMP280;60395;52.020;113.548;2023-06-22T00:13:38;92569.91;;;40.55
72405;BMP280;60395;52.020;113.548;2023-06-22T00:16:42;92570.00;;;40.69
72405;BMP280;60395;52.020;113.548;2023-06-22T00:19:47;92574.84;;;41.15
72405;BMP280;60395;52.020;113.548;2023-06-22T00:22:50;92582.03;;;41.46
72405;BMP280;60395;52.020;113.548;2023-06-22T00:25:53;92582.03;;;41.50
72405;BMP280;60395;52.020;113.548;2023-06-22T00:28:57;92580.91;;;42.03
72405;BMP280;60395;52.020;113.548;2023-06-22T00:32:00;92570.72;;;41.61
72405;BMP280;60395;52.020;113.548;2023-06-22T00:35:04;92566.97;;;40.33
72405;BMP280;60395;52.020;113.548;2023-06-22T00:38:07;92568.44;;;39.11
72405;BMP280;60395;52.020;113.548;2023-06-22T00:41:11;92559.97;;;37.97
72405;BMP280;60395;52.020;113.548;2023-06-22T00:44:14;92566.00;;;37.46
72405;BMP280;60395;52.020;113.548;2023-06-22T00:47:18;92562.47;;;37.37
72405;BMP280;60395;52.020;113.548;2023-06-22T00:50:24;92561.38;;;37.14
72405;BMP280;60395;52.020;113.548;2023-06-22T00:53:28;92553.22;;;36.23
72405;BMP280;60395;52.020;113.548;2023-06-22T00:56:32;92554.22;;;35.04
72405;BMP280;60395;52.020;113.548;2023-06-22T00:59:36;92555.66;;;34.06
72405;BMP280;60395;52.020;113.548;2023-06-22T01:02:39;92564.75;;;32.97
72405;BMP280;60395;52.020;113.548;2023-06-22T01:05:44;92562.53;;;31.49
72405;BMP280;60395;52.020;113.548;2023-06-22T01:08:57;92559.44;;;30.68
72405;BMP280;60395;52.020;113.548;2023-06-22T01:12:06;92561.03;;;29.78
72405;BMP280;60395;52.020;113.548;2023-06-22T01:15:28;92552.75;;;28.96
72405;BMP280;60395;52.020;113.548;2023-06-22T01:18:35;92549.22;;;27.96
72405;BMP280;60395;52.020;113.548;2023-06-22T01:21:40;92549.00;;;27.22
72405;BMP280;60395;52.020;113.548;2023-06-22T01:31:31;92553.88;;;25.61
72405;BMP280;60395;52.020;113.548;2023-06-22T01:34:36;92538.34;;;25.62
72405;BMP280;60395;52.020;113.548;2023-06-22T01:37:40;92539.75;;;25.78
72405;BMP280;60395;52.020;113.548;2023-06-22T01:40:43;92542.34;;;25.95
72405;BMP280;60395;52.020;113.548;2023-06-22T01:43:47;92533.97;;;25.99
72405;BMP280;60395;52.020;113.548;2023-06-22T01:46:51;92526.97;;;26.10
72405;BMP280;60395;52.020;113.548;2023-06-22T01:49:56;92513.72;;;25.42
72405;BMP280;60395;52.020;113.548;2023-06-22T01:52:59;92524.03;;;24.97
72405;BMP280;60395;52.020;113.548;2023-06-22T01:56:03;92525.13;;;24.91
72405;BMP280;60395;52.020;113.548;2023-06-22T02:02:19;92509.94;;;25.22
72405;BMP280;60395;52.020;113.548;2023-06-22T02:05:26;92508.47;;;25.48
72405;BMP280;60395;52.020;113.548;2023-06-22T02:08:40;92500.81;;;25.68
72405;BMP280;60395;52.020;113.548;2023-06-22T02:11:45;92501.66;;;25.58
72405;BMP280;60395;52.020;113.548;2023-06-22T02:14:51;92497.91;;;25.38
72405;BMP280;60395;52.020;113.548;2023-06-22T02:17:55;92493.47;;;25.34
72405;BMP280;60395;52.020;113.548;2023-06-22T02:20:58;92492.22;;;25.25
72405;BMP280;60395;52.020;113.548;2023-06-22T02:24:02;92491.72;;;25.39
72405;BMP280;60395;52.020;113.548;2023-06-22T02:27:06;92501.34;;;25.53
72405;BMP280;60395;52.020;113.548;2023-06-22T02:30:10;92495.16;;;25.55
72405;BMP280;60395;52.020;113.548;2023-06-22T02:33:13;92489.84;;;25.38
72405;BMP280;60395;52.020;113.548;2023-06-22T02:36:17;92494.47;;;25.22
72405;BMP280;60395;52.020;113.548;2023-06-22T02:39:25;92500.78;;;25.27
72405;BMP280;60395;52.020;113.548;2023-06-22T02:42:28;92491.28;;;25.28
72405;BMP280;60395;52.020;113.548;2023-06-22T02:45:31;92479.72;;;25.30
72405;BMP280;60395;52.020;113.548;2023-06-22T02:48:35;92478.25;;;25.48
72405;BMP280;60395;52.020;113.548;2023-06-22T02:51:45;92469.16;;;25.69
72405;BMP280;60395;52.020;113.548;2023-06-22T02:54:51;92463.97;;;25.67
72405;BMP280;60395;52.020;113.548;2023-06-22T02:57:54;92465.63;;;25.87
72405;BMP280;60395;52.020;113.548;2023-06-22T03:00:58;92453.84;;;25.99
72405;BMP280;60395;52.020;113.548;2023-06-22T03:04:09;92457.75;;;26.09
72405;BMP280;60395;52.020;113.548;2023-06-22T03:07:13;92450.56;;;25.90
72405;BMP280;60395;52.020;113.548;2023-06-22T03:10:16;92453.75;;;25.84
72405;BMP280;60395;52.020;113.548;2023-06-22T03:13:19;92447.75;;;25.84
72405;BMP280;60395;52.020;113.548;2023-06-22T03:16:22;92450.69;;;25.97
72405;BMP280;60395;52.020;113.548;2023-06-22T03:19:25;92457.81;;;26.24
72405;BMP280;60395;52.020;113.548;2023-06-22T03:22:29;92455.31;;;26.46
72405;BMP280;60395;52.020;113.548;2023-06-22T03:25:32;92449.09;;;26.71
72405;BMP280;60395;52.020;113.548;2023-06-22T03:28:37;92430.25;;;26.86
72405;BMP280;60395;52.020;113.548;2023-06-22T03:31:42;92433.66;;;26.93
72405;BMP280;60395;52.020;113.548;2023-06-22T03:34:46;92426.97;;;27.00
72405;BMP280;60395;52.020;113.548;2023-06-22T03:37:51;92415.53;;;26.85
72405;BMP280;60395;52.020;113.548;2023-06-22T03:40:55;92424.16;;;26.94
72405;BMP280;60395;52.020;113.548;2023-06-22T03:43:58;92420.66;;;27.10
72405;BMP280;60395;52.020;113.548;2023-06-22T03:47:03;92418.22;;;27.00
72405;BMP280;60395;52.020;113.548;2023-06-22T03:50:07;92407.16;;;26.95
72405;BMP280;60395;52.020;113.548;2023-06-22T03:53:11;92396.13;;;27.06
72405;BMP280;60395;52.020;113.548;2023-06-22T03:56:14;92390.84;;;27.12
72405;BMP280;60395;52.020;113.548;2023-06-22T03:59:23;92396.88;;;27.13
72405;BMP280;60395;52.020;113.548;2023-06-22T04:02:26;92387.75;;;27.16
72405;BMP280;60395;52.020;113.548;2023-06-22T04:05:29;92379.38;;;27.27
72405;BMP280;60395;52.020;113.548;2023-06-22T04:08:32;92392.31;;;27.48
72405;BMP280;60395;52.020;113.548;2023-06-22T04:11:36;92380.28;;;27.32
72405;BMP280;60395;52.020;113.548;2023-06-22T04:14:39;92382.97;;;27.32
72405;BMP280;60395;52.020;113.548;2023-06-22T04:17:42;92378.69;;;27.20
72405;BMP280;60395;52.020;113.548;2023-06-22T04:20:46;92374.38;;;27.08
72405;BMP280;60395;52.020;113.548;2023-06-22T04:23:49;92365.47;;;27.25
72405;BMP280;60395;52.020;113.548;2023-06-22T04:26:53;92354.63;;;27.55
72405;BMP280;60395;52.020;113.548;2023-06-22T04:29:57;92346.13;;;27.74
72405;BMP280;60395;52.020;113.548;2023-06-22T04:33:03;92369.78;;;27.73
72405;BMP280;60395;52.020;113.548;2023-06-22T04:36:06;92363.03;;;27.29
72405;BMP280;60395;52.020;113.548;2023-06-22T04:39:10;92353.59;;;27.21
72405;BMP280;60395;52.020;113.548;2023-06-22T04:42:14;92349.47;;;27.22
72405;BMP280;60395;52.020;113.548;2023-06-22T04:45:17;92344.63;;;27.16
72405;BMP280;60395;52.020;113.548;2023-06-22T04:48:21;92338.44;;;27.18
72405;BMP280;60395;52.020;113.548;2023-06-22T04:51:24;92329.88;;;27.31
72405;BMP280;60395;52.020;113.548;2023-06-22T04:54:33;92327.41;;;27.50
72405;BMP280;60395;52.020;113.548;2023-06-22T04:57:37;92320.31;;;27.68
72405;BMP280;60395;52.020;113.548;2023-06-22T05:00:42;92325.25;;;27.87
72405;BMP280;60395;52.020;113.548;2023-06-22T05:03:47;92327.72;;;27.83
72405;BMP280;60395;52.020;113.548;2023-06-22T05:06:51;92316.84;;;27.76
72405;BMP280;60395;52.020;113.548;2023-06-22T05:09:55;92312.88;;;27.75
72405;BMP280;60395;52.020;113.548;2023-06-22T05:12:58;92319.19;;;27.80
72405;BMP280;60395;52.020;113.548;2023-06-22T05:16:01;92315.56;;;27.97
72405;BMP280;60395;52.020;113.548;2023-06-22T05:19:05;92314.66;;;28.07
72405;BMP280;60395;52.020;113.548;2023-06-22T05:22:09;92318.84;;;28.13
72405;BMP280;60395;52.020;113.548;2023-06-22T05:25:13;92310.59;;;28.21
72405;BMP280;60395;52.020;113.548;2023-06-22T05:28:17;92298.25;;;28.37
72405;BMP280;60395;52.020;113.548;2023-06-22T05:31:25;92295.00;;;28.50
72405;BMP280;60395;52.020;113.548;2023-06-22T05:34:29;92297.13;;;28.56
72405;BMP280;60395;52.020;113.548;2023-06-22T05:37:33;92285.75;;;28.62
72405;BMP280;60395;52.020;113.548;2023-06-22T05:40:36;92287.06;;;28.76
72405;BMP280;60395;52.020;113.548;2023-06-22T05:43:40;92286.84;;;28.78
72405;BMP280;60395;52.020;113.548;2023-06-22T05:46:44;92281.66;;;28.76
72405;BMP280;60395;52.020;113.548;2023-06-22T05:49:49;92271.06;;;28.80
72405;BMP280;60395;52.020;113.548;2023-06-22T05:52:52;92282.94;;;28.83
72405;BMP280;60395;52.020;113.548;2023-06-22T05:55:55;92268.81;;;28.83
72405;BMP280;60395;52.020;113.548;2023-06-22T05:58:59;92260.69;;;28.83
72405;BMP280;60395;52.020;113.548;2023-06-22T06:02:02;92261.69;;;28.79
72405;BMP280;60395;52.020;113.548;2023-06-22T06:05:06;92255.88;;;28.77
72405;BMP280;60395;52.020;113.548;2023-06-22T06:08:10;92250.81;;;28.66
72405;BMP280;60395;52.020;113.548;2023-06-22T06:11:14;92239.38;;;28.66
72405;BMP280;60395;52.020;113.548;2023-06-22T06:14:17;92221.53;;;28.62
72405;BMP280;60395;52.020;113.548;2023-06-22T06:17:21;92209.69;;;28.72
72405;BMP280;60395;52.020;113.548;2023-06-22T06:20:25;92194.97;;;28.84
72405;BMP280;60395;52.020;113.548;2023-06-22T06:23:31;92207.88;;;28.84
72405;BMP280;60395;52.020;113.548;2023-06-22T06:26:34;92202.44;;;28.77
72405;BMP280;60395;52.020;113.548;2023-06-22T06:29:38;92192.50;;;28.89
72405;BMP280;60395;52.020;113.548;2023-06-22T06:32:42;92207.09;;;29.05
72405;BMP280;60395;52.020;113.548;2023-06-22T06:35:45;92205.84;;;29.04
72405;BMP280;60395;52.020;113.548;2023-06-22T06:38:48;92210.00;;;29.03
72405;BMP280;60395;52.020;113.548;2023-06-22T06:41:52;92215.41;;;29.03
72405;BMP280;60395;52.020;113.548;2023-06-22T06:44:55;92215.00;;;29.07
72405;BMP280;60395;52.020;113.548;2023-06-22T06:47:58;92215.84;;;29.19
72405;BMP280;60395;52.020;113.548;2023-06-22T06:51:02;92210.69;;;29.30
72405;BMP280;60395;52.020;113.548;2023-06-22T06:54:05;92199.03;;;29.31
72405;BMP280;60395;52.020;113.548;2023-06-22T06:57:08;92184.25;;;29.37
72405;BMP280;60395;52.020;113.548;2023-06-22T07:00:14;92182.19;;;29.37
72405;BMP280;60395;52.020;113.548;2023-06-22T07:03:18;92174.91;;;29.42
72405;BMP280;60395;52.020;113.548;2023-06-22T07:06:21;92186.16;;;29.38
72405;BMP280;60395;52.020;113.548;2023-06-22T07:09:24;92173.44;;;29.37
72405;BMP280;60395;52.020;113.548;2023-06-22T07:12:27;92168.25;;;29.41
72405;BMP280;60395;52.020;113.548;2023-06-22T07:15:31;92158.25;;;29.40
72405;BMP280;60395;52.020;113.548;2023-06-22T07:18:34;92151.16;;;29.36
72405;BMP280;60395;52.020;113.548;2023-06-22T07:21:37;92143.69;;;29.30
72405;BMP280;60395;52.020;113.548;2023-06-22T07:24:42;92148.03;;;29.21
72405;BMP280;60395;52.020;113.548;2023-06-22T07:28:06;92145.75;;;29.30
72405;BMP280;60395;52.020;113.548;2023-06-22T07:31:10;92140.56;;;29.28
72405;BMP280;60395;52.020;113.548;2023-06-22T07:34:13;92135.56;;;29.24
72405;BMP280;60395;52.020;113.548;2023-06-22T07:37:16;92134.31;;;29.29
72405;BMP280;60395;52.020;113.548;2023-06-22T07:40:20;92125.34;;;29.31
72405;BMP280;60395;52.020;113.548;2023-06-22T07:43:23;92130.16;;;29.37
72405;BMP280;60395;52.020;113.548;2023-06-22T07:46:26;92128.50;;;29.33
72405;BMP280;60395;52.020;113.548;2023-06-22T07:49:29;92130.78;;;29.24
72405;BMP280;60395;52.020;113.548;2023-06-22T07:52:33;92118.09;;;29.23
72405;BMP280;60395;52.020;113.548;2023-06-22T07:55:36;92124.75;;;29.24
72405;BMP280;60395;52.020;113.548;2023-06-22T07:58:39;92112.47;;;29.31
72405;BMP280;60395;52.020;113.548;2023-06-22T08:01:43;92112.47;;;29.44
72405;BMP280;60395;52.020;113.548;2023-06-22T08:04:46;92113.69;;;29.45
72405;BMP280;60395;52.020;113.548;2023-06-22T08:07:50;92115.38;;;29.42
72405;BMP280;60395;52.020;113.548;2023-06-22T08:10:54;92107.28;;;29.36
72405;BMP280;60395;52.020;113.548;2023-06-22T08:13:57;92109.13;;;29.37
72405;BMP280;60395;52.020;113.548;2023-06-22T08:17:00;92103.31;;;29.54
72405;BMP280;60395;52.020;113.548;2023-06-22T08:20:05;92103.50;;;29.46
72405;BMP280;60395;52.020;113.548;2023-06-22T08:23:17;92111.44;;;29.41
72405;BMP280;60395;52.020;113.548;2023-06-22T08:26:20;92113.69;;;29.45
72405;BMP280;60395;52.020;113.548;2023-06-22T08:29:24;92113.09;;;29.45
72405;BMP280;60395;52.020;113.548;2023-06-22T08:32:28;92105.81;;;29.37
72405;BMP280;60395;52.020;113.548;2023-06-22T08:35:31;92095.59;;;29.31
72405;BMP280;60395;52.020;113.548;2023-06-22T08:38:35;92093.94;;;29.34
72405;BMP280;60395;52.020;113.548;2023-06-22T08:41:38;92082.50;;;29.33
72405;BMP280;60395;52.020;113.548;2023-06-22T08:44:42;92082.91;;;29.36
72405;BMP280;60395;52.020;113.548;2023-06-22T08:47:45;92084.19;;;29.30
72405;BMP280;60395;52.020;113.548;2023-06-22T08:50:48;92080.84;;;29.30
72405;BMP280;60395;52.020;113.548;2023-06-22T08:53:51;92075.44;;;29.30
72405;BMP280;60395;52.020;113.548;2023-06-22T08:56:57;92073.56;;;29.28
72405;BMP280;60395;52.020;113.548;2023-06-22T09:00:01;92077.72;;;29.27
72405;BMP280;60395;52.020;113.548;2023-06-22T09:03:07;92072.13;;;29.23
72405;BMP280;60395;52.020;113.548;2023-06-22T09:06:11;92060.66;;;29.22
72405;BMP280;60395;52.020;113.548;2023-06-22T09:09:16;92066.06;;;29.22
72405;BMP280;60395;52.020;113.548;2023-06-22T09:12:20;92063.78;;;29.18
72405;BMP280;60395;52.020;113.548;2023-06-22T09:15:25;92054.41;;;29.11
72405;BMP280;60395;52.020;113.548;2023-06-22T09:18:29;92051.09;;;29.03
72405;BMP280;60395;52.020;113.548;2023-06-22T09:21:32;92052.75;;;28.94
72405;BMP280;60395;52.020;113.548;2023-06-22T09:24:36;92052.34;;;28.91
72405;BMP280;60395;52.020;113.548;2023-06-22T09:27:39;92051.72;;;28.97
72405;BMP280;60395;52.020;113.548;2023-06-22T09:30:43;92057.94;;;28.96
72405;BMP280;60395;52.020;113.548;2023-06-22T09:33:50;92043.19;;;28.88
72405;BMP280;60395;52.020;113.548;2023-06-22T09:36:53;92050.88;;;28.86
72405;BMP280;60395;52.020;113.548;2023-06-22T09:39:56;92048.59;;;28.82
72405;BMP280;60395;52.020;113.548;2023-06-22T09:43:00;92043.59;;;28.71
72405;BMP280;60395;52.020;113.548;2023-06-22T09:46:03;92038.38;;;28.69
72405;BMP280;60395;52.020;113.548;2023-06-22T09:49:06;92041.50;;;28.65
72405;BMP280;60395;52.020;113.548;2023-06-22T09:52:10;92043.16;;;28.62
72405;BMP280;60395;52.020;113.548;2023-06-22T09:55:14;92045.06;;;28.77
72405;BMP280;60395;52.020;113.548;2023-06-22T09:58:18;92041.50;;;28.65
72405;BMP280;60395;52.020;113.548;2023-06-22T10:01:22;92034.00;;;28.59
72405;BMP280;60395;52.020;113.548;2023-06-22T10:04:26;92032.94;;;28.50
72405;BMP280;60395;52.020;113.548;2023-06-22T10:07:30;92028.97;;;28.42
72405;BMP280;60395;52.020;113.548;2023-06-22T10:10:33;92028.97;;;28.36
72405;BMP280;60395;52.020;113.548;2023-06-22T10:13:37;92033.72;;;28.29
72405;BMP280;60395;52.020;113.548;2023-06-22T10:16:40;92032.25;;;28.23
72405;BMP280;60395;52.020;113.548;2023-06-22T10:19:44;92039.50;;;28.18
72405;BMP280;60395;52.020;113.548;2023-06-22T10:22:47;92034.91;;;28.10
72405;BMP280;60395;52.020;113.548;2023-06-22T10:25:50;92036.56;;;28.07
72405;BMP280;60395;52.020;113.548;2023-06-22T10:28:53;92037.78;;;28.01
72405;BMP280;60395;52.020;113.548;2023-06-22T10:32:17;92046.47;;;27.95
72405;BMP280;60395;52.020;113.548;2023-06-22T10:35:20;92047.88;;;27.88
72405;BMP280;60395;52.020;113.548;2023-06-22T10:38:23;92047.66;;;27.83
72405;BMP280;60395;52.020;113.548;2023-06-22T10:41:26;92048.25;;;27.77
72405;BMP280;60395;52.020;113.548;2023-06-22T10:44:32;92049.91;;;27.74
72405;BMP280;60395;52.020;113.548;2023-06-22T10:47:36;92058.19;;;27.72
72405;BMP280;60395;52.020;113.548;2023-06-22T10:50:39;92047.97;;;27.66
72405;BMP280;60395;52.020;113.548;2023-06-22T10:53:43;92048.78;;;27.65
72405;BMP280;60395;52.020;113.548;2023-06-22T10:56:46;92053.38;;;27.66
72405;BMP280;60395;52.020;113.548;2023-06-22T10:59:49;92054.41;;;27.63
72405;BMP280;60395;52.020;113.548;2023-06-22T11:02:53;92052.28;;;27.57
72405;BMP280;60395;52.020;113.548;2023-06-22T11:05:56;92041.63;;;27.48
72405;BMP280;60395;52.020;113.548;2023-06-22T11:09:00;92038.91;;;27.42
72405;BMP280;60395;52.020;113.548;2023-06-22T11:12:23;92040.47;;;27.32
72405;BMP280;60395;52.020;113.548;2023-06-22T11:15:26;92033.97;;;27.22
72405;BMP280;60395;52.020;113.548;2023-06-22T11:18:31;92035.19;;;27.17
72405;BMP280;60395;52.020;113.548;2023-06-22T11:21:36;92039.28;;;27.09
72405;BMP280;60395;52.020;113.548;2023-06-22T11:24:39;92030.16;;;27.06
72405;BMP280;60395;52.020;113.548;2023-06-22T11:27:43;92025.13;;;27.02
72405;BMP280;60395;52.020;113.548;2023-06-22T11:30:46;92034.44;;;26.97
72405;BMP280;60395;52.020;113.548;2023-06-22T11:33:50;92039.13;;;26.90
72405;BMP280;60395;52.020;113.548;2023-06-22T11:36:53;92039.06;;;26.83
72405;BMP280;60395;52.020;113.548;2023-06-22T11:39:57;92037.75;;;26.76
72405;BMP280;60395;52.020;113.548;2023-06-22T11:43:09;92033.28;;;26.66
72405;BMP280;60395;52.020;113.548;2023-06-22T11:46:12;92030.53;;;26.59
72405;BMP280;60395;52.020;113.548;2023-06-22T11:49:16;92024.47;;;26.52
72405;BMP280;60395;52.020;113.548;2023-06-22T11:52:19;92029.16;;;26.45
72405;BMP280;60395;52.020;113.548;2023-06-22T11:55:22;92028.66;;;26.36
72405;BMP280;60395;52.020;113.548;2023-06-22T11:58:26;92023.19;;;26.29
72405;BMP280;60395;52.020;113.548;2023-06-22T12:01:29;92021.44;;;26.19
72405;BMP280;60395;52.020;113.548;2023-06-22T12:04:32;92022.34;;;26.09
72405;BMP280;60395;52.020;113.548;2023-06-22T12:07:36;92024.16;;;26.04
72405;BMP280;60395;52.020;113.548;2023-06-22T12:10:40;92033.84;;;26.01
72405;BMP280;60395;52.020;113.548;2023-06-22T12:13:43;92037.06;;;25.95
72405;BMP280;60395;52.020;113.548;2023-06-22T12:16:46;92038.25;;;25.90
72405;BMP280;60395;52.020;113.548;2023-06-22T12:19:50;92053.25;;;25.80
72405;BMP280;60395;52.020;113.548;2023-06-22T12:22:53;92046.84;;;25.69
72405;BMP280;60395;52.020;113.548;2023-06-22T12:25:58;92039.06;;;25.58
72405;BMP280;60395;52.020;113.548;2023-06-22T12:29:02;92036.00;;;25.47
72405;BMP280;60395;52.020;113.548;2023-06-22T12:32:06;92050.16;;;25.39
72405;BMP280;60395;52.020;113.548;2023-06-22T12:35:10;92045.22;;;25.26
72405;BMP280;60395;52.020;113.548;2023-06-22T12:38:16;92046.88;;;25.15
72405;BMP280;60395;52.020;113.548;2023-06-22T12:41:20;92038.59;;;25.02
72405;BMP280;60395;52.020;113.548;2023-06-22T12:44:23;92043.16;;;24.88
72405;BMP280;60395;52.020;113.548;2023-06-22T12:47:26;92041.75;;;24.81
72405;BMP280;60395;52.020;113.548;2023-06-22T12:50:30;92033.50;;;24.67
72405;BMP280;60395;52.020;113.548;2023-06-22T12:53:34;92040.81;;;24.60
72405;BMP280;60395;52.020;113.548;2023-06-22T12:56:38;92046.22;;;24.52
72405;BMP280;60395;52.020;113.548;2023-06-22T12:59:41;92045.63;;;24.43
72405;BMP280;60395;52.020;113.548;2023-06-22T13:02:44;92045.84;;;24.32
72405;BMP280;60395;52.020;113.548;2023-06-22T13:05:48;92045.28;;;24.23
72405;BMP280;60395;52.020;113.548;2023-06-22T13:08:51;92054.47;;;24.18
72405;BMP280;60395;52.020;113.548;2023-06-22T13:11:57;92051.63;;;24.11
72405;BMP280;60395;52.020;113.548;2023-06-22T13:15:01;92050.72;;;24.06
72405;BMP280;60395;52.020;113.548;2023-06-22T13:18:05;92047.25;;;23.99
72405;BMP280;60395;52.020;113.548;2023-06-22T13:21:09;92047.59;;;23.95
72405;BMP280;60395;52.020;113.548;2023-06-22T13:24:12;92048.22;;;23.87
72405;BMP280;60395;52.020;113.548;2023-06-22T13:27:15;92053.44;;;23.80
72405;BMP280;60395;52.020;113.548;2023-06-22T13:30:19;92054.41;;;23.77
72405;BMP280;60395;52.020;113.548;2023-06-22T13:33:22;92064.53;;;23.68
72405;BMP280;60395;52.020;113.548;2023-06-22T13:36:26;92060.28;;;23.62
72405;BMP280;60395;52.020;113.548;2023-06-22T13:39:29;92066.91;;;23.55
72405;BMP280;60395;52.020;113.548;2023-06-22T13:42:33;92062.03;;;23.49
72405;BMP280;60395;52.020;113.548;2023-06-22T13:45:37;92061.28;;;23.42
72405;BMP280;60395;52.020;113.548;2023-06-22T13:48:40;92062.97;;;23.37
72405;BMP280;60395;52.020;113.548;2023-06-22T13:51:43;92062.53;;;23.34
72405;BMP280;60395;52.020;113.548;2023-06-22T13:54:46;92062.38;;;23.28
72405;BMP280;60395;52.020;113.548;2023-06-22T13:57:50;92062.19;;;23.21
72405;BMP280;60395;52.020;113.548;2023-06-22T14:00:54;92054.47;;;23.17
72405;BMP280;60395;52.020;113.548;2023-06-22T14:03:58;92066.16;;;23.13
72405;BMP280;60395;52.020;113.548;2023-06-22T14:07:01;92055.72;;;23.09
72405;BMP280;60395;52.020;113.548;2023-06-22T14:10:05;92059.06;;;23.01
72405;BMP280;60395;52.020;113.548;2023-06-22T14:13:08;92048.97;;;22.93
72405;BMP280;60395;52.020;113.548;2023-06-22T14:16:11;92062.22;;;22.87
72405;BMP280;60395;52.020;113.548;2023-06-22T14:19:17;92061.88;;;22.82
72405;BMP280;60395;52.020;113.548;2023-06-22T14:22:22;92055.72;;;22.75
72405;BMP280;60395;52.020;113.548;2023-06-22T14:25:25;92068.31;;;22.68
72405;BMP280;60395;52.020;113.548;2023-06-22T14:28:28;92062.63;;;22.64
72405;BMP280;60395;52.020;113.548;2023-06-22T14:31:32;92055.19;;;22.56
72405;BMP280;60395;52.020;113.548;2023-06-22T14:34:35;92053.91;;;22.46
72405;BMP280;60395;52.020;113.548;2023-06-22T14:37:42;92060.66;;;22.36
72405;BMP280;60395;52.020;113.548;2023-06-22T14:40:45;92060.78;;;22.26
72405;BMP280;60395;52.020;113.548;2023-06-22T14:44:08;92051.94;;;22.19
72405;BMP280;60395;52.020;113.548;2023-06-22T14:47:11;92057.72;;;22.13
72405;BMP280;60395;52.020;113.548;2023-06-22T14:50:15;92060.06;;;22.08
72405;BMP280;60395;52.020;113.548;2023-06-22T14:53:18;92062.56;;;22.02
72405;BMP280;60395;52.020;113.548;2023-06-22T14:56:22;92062.53;;;21.93
72405;BMP280;60395;52.020;113.548;2023-06-22T14:59:25;92048.34;;;21.86
72405;BMP280;60395;52.020;113.548;2023-06-22T15:02:28;92053.50;;;21.80
72405;BMP280;60395;52.020;113.548;2023-06-22T15:05:32;92058.63;;;21.73
72405;BMP280;60395;52.020;113.548;2023-06-22T15:08:41;92051.34;;;21.63
72405;BMP280;60395;52.020;113.548;2023-06-22T15:11:45;92045.88;;;21.46
72405;BMP280;60395;52.020;113.548;2023-06-22T15:14:48;92056.50;;;21.37
72405;BMP280;60395;52.020;113.548;2023-06-22T15:17:51;92050.41;;;21.39
72405;BMP280;60395;52.020;113.548;2023-06-22T15:20:55;92055.25;;;21.36
72405;BMP280;60395;52.020;113.548;2023-06-22T15:23:58;92055.38;;;21.34
72405;BMP280;60395;52.020;113.548;2023-06-22T15:27:02;92060.88;;;21.32
72405;BMP280;60395;52.020;113.548;2023-06-22T15:30:05;92062.75;;;21.34
72405;BMP280;60395;52.020;113.548;2023-06-22T15:33:09;92059.19;;;21.37
72405;BMP280;60395;52.020;113.548;2023-06-22T15:36:12;92057.06;;;21.29
72405;BMP280;60395;52.020;113.548;2023-06-22T15:39:16;92064.59;;;21.27
72405;BMP280;60395;52.020;113.548;2023-06-22T15:42:20;92059.53;;;21.23
72405;BMP280;60395;52.020;113.548;2023-06-22T15:45:25;92044.78;;;21.24
72405;BMP280;60395;52.020;113.548;2023-06-22T15:48:28;92055.75;;;21.20
72405;BMP280;60395;52.020;113.548;2023-06-22T15:51:31;92053.50;;;21.14
72405;BMP280;60395;52.020;113.548;2023-06-22T15:54:35;92056.88;;;21.04
72405;BMP280;60395;52.020;113.548;2023-06-22T15:57:38;92056.50;;;20.80
72405;BMP280;60395;52.020;113.548;2023-06-22T16:00:41;92050.50;;;20.60
72405;BMP280;60395;52.020;113.548;2023-06-22T16:03:44;92045.75;;;20.42
72405;BMP280;60395;52.020;113.548;2023-06-22T16:06:48;92054.31;;;20.23
72405;BMP280;60395;52.020;113.548;2023-06-22T16:09:54;92051.72;;;20.02
72405;BMP280;60395;52.020;113.548;2023-06-22T16:12:57;92062.66;;;19.87
72405;BMP280;60395;52.020;113.548;2023-06-22T16:16:00;92059.50;;;19.74
72405;BMP280;60395;52.020;113.548;2023-06-22T16:19:03;92054.03;;;19.66
72405;BMP280;60395;52.020;113.548;2023-06-22T16:22:07;92052.13;;;19.64
72405;BMP280;60395;52.020;113.548;2023-06-22T16:25:10;92059.91;;;19.57
72405;BMP280;60395;52.020;113.548;2023-06-22T16:28:13;92059.88;;;19.47
72405;BMP280;60395;52.020;113.548;2023-06-22T16:31:16;92064.72;;;19.44
72405;BMP280;60395;52.020;113.548;2023-06-22T16:34:20;92062.28;;;19.51
72405;BMP280;60395;52.020;113.548;2023-06-22T16:37:23;92062.78;;;19.53
72405;BMP280;60395;52.020;113.548;2023-06-22T16:40:27;92060.66;;;19.56
72405;BMP280;60395;52.020;113.548;2023-06-22T16:43:30;92054.19;;;19.63
72405;BMP280;60395;52.020;113.548;2023-06-22T16:46:34;92062.00;;;19.76
72405;BMP280;60395;52.020;113.548;2023-06-22T16:49:37;92067.09;;;19.91
72405;BMP280;60395;52.020;113.548;2023-06-22T16:52:41;92055.41;;;19.96
72405;BMP280;60395;52.020;113.548;2023-06-22T16:55:49;92049.81;;;20.00
72405;BMP280;60395;52.020;113.548;2023-06-22T16:58:54;92050.81;;;20.05
72405;BMP280;60395;52.020;113.548;2023-06-22T17:02:17;92052.97;;;20.03
72405;BMP280;60395;52.020;113.548;2023-06-22T17:05:21;92052.84;;;20.05
72405;BMP280;60395;52.020;113.548;2023-06-22T17:08:31;92047.44;;;19.96
72405;BMP280;60395;52.020;113.548;2023-06-22T17:11:37;92044.91;;;19.62
72405;BMP280;60395;52.020;113.548;2023-06-22T17:14:41;92045.94;;;19.46
72405;BMP280;60395;52.020;113.548;2023-06-22T17:17:48;92056.06;;;19.54
72405;BMP280;60395;52.020;113.548;2023-06-22T17:20:52;92041.09;;;19.59